W41 weather

Crisfield Municipal Airport
Crisfield, Maryland, United States

Public forecast

Using degrees Fahrenheit for public forecast. Weather courtesy of forecast.io.

METAR (pilot weather report)

Closest report is Tangier Island Airport, 14.1 nm (26.1 km) SW. Retrieved 2019/09/16 15:43 UTC (0 seconds ago):

KTGI 161543Z AUTO 36004KT 10SM CLR 27/23 A3007 RMK AO1

TAF (pilot weather forecast)

Closest forecast is Salisbury Ocean City Wicomico Regional Airport, 24.5 nm (45.4 km) NE. Retrieved 2019/09/16 15:57 UTC (0 seconds ago):

TAF KSBY 161454Z 1615/1712 VRB02KT P6SM SCT015 FM161600 16003KT P6SM SCT040 FM161900 16006KT P6SM SCT050 FM162300 13004KT P6SM SCT120 FM170500 03002KT P6SM BKN050 FM170800 00000KT P6SM BKN015